Time;durP1;ratioP1;P1;durP2;ratioP2;P2;SDS_P1;SDS_P2;PMS_P1;PMS_P2;Temp;Humidity;BMP_temperature;BMP_pressure;BME280_temperature;BME280_humidity;BME280_pressure;Samples;Min_cycle;Max_cycle;Signal;HPM_P1;HPM_P2
2022/09/21 00:02:01;;;;;;;6.40;1.62;;;;;;;9.01;100.00;98844.45;1678878;84;20910;-82
2022/09/21 00:04:29;;;;;;;1.35;1.20;;;;;;;9.00;100.00;98844.77;1664029;84;21001;-83
2022/09/21 00:07:00;;;;;;;3.75;1.30;;;;;;;8.99;100.00;98843.97;1677941;84;21107;-83
2022/09/21 00:09:33;;;;;;;2.25;1.20;;;;;;;8.98;100.00;98844.28;1678257;84;21161;-83
2022/09/21 00:12:08;;;;;;;1.52;0.88;;;;;;;8.96;100.00;98839.70;1682071;84;20934;-84
2022/09/21 00:14:36;;;;;;;1.25;0.72;;;;;;;8.92;100.00;98836.23;1680678;84;21006;-82
2022/09/21 00:17:04;;;;;;;3.35;1.32;;;;;;;8.91;100.00;98840.09;1677480;83;21069;-83
2022/09/21 00:19:36;;;;;;;1.10;0.80;;;;;;;8.91;100.00;98837.92;1678497;84;21227;-83
2022/09/21 00:22:06;;;;;;;1.50;0.80;;;;;;;8.89;100.00;98832.77;1682882;83;20990;-82
2022/09/21 00:24:36;;;;;;;0.95;0.80;;;;;;;8.88;100.00;98841.30;1662699;84;20988;-83
2022/09/21 00:27:06;;;;;;;1.25;0.88;;;;;;;8.87;100.00;98832.85;1663386;84;21037;-84
2022/09/21 00:29:37;;;;;;;1.30;0.68;;;;;;;8.87;100.00;98829.55;1677552;84;21025;-85
2022/09/21 00:32:05;;;;;;;1.00;0.90;;;;;;;8.86;100.00;98835.34;1671285;83;20959;-85
2022/09/21 00:34:36;;;;;;;2.50;0.95;;;;;;;8.84;100.00;98832.12;1660445;84;20990;-84
2022/09/21 00:37:08;;;;;;;;;;;;;;;8.80;100.00;98834.70;1681974;84;21116;-85
2022/09/21 00:39:42;;;;;;;3.30;0.95;;;;;;;8.79;100.00;98830.91;1680404;83;20116;-83
2022/09/21 00:42:24;;;;;;;1.60;0.80;;;;;;;8.78;100.00;98837.52;1679868;83;20963;-84
2022/09/21 00:44:56;;;;;;;3.08;1.02;;;;;;;8.76;100.00;98841.13;1677329;83;22216;-82
2022/09/21 00:47:38;;;;;;;1.17;1.00;;;;;;;8.76;100.00;98839.77;1662323;85;20987;-82
2022/09/21 00:50:12;;;;;;;1.17;1.07;;;;;;;8.75;100.00;98836.78;1678553;84;21037;-81
2022/09/21 00:52:44;;;;;;;1.75;1.00;;;;;;;8.77;100.00;98835.90;1680133;84;20942;-83
2022/09/21 00:55:19;;;;;;;1.80;1.07;;;;;;;8.78;100.00;98832.03;1679495;84;20936;-85
2022/09/21 00:57:53;;;;;;;1.98;1.15;;;;;;;8.75;100.00;98832.12;1679897;84;21170;-83
2022/09/21 01:00:24;;;;;;;1.35;0.93;;;;;;;8.75;100.00;98832.68;1623953;87;21548;-84
2022/09/21 01:03:00;;;;;;;5.72;1.20;;;;;;;8.73;100.00;98838.47;1650654;85;21045;-83
2022/09/21 01:05:25;;;;;;;2.60;1.30;;;;;;;8.72;100.00;98842.90;1647845;86;21589;-84
2022/09/21 01:07:56;;;;;;;3.55;1.20;;;;;;;8.69;100.00;98840.23;1625846;86;21506;-85
2022/09/21 01:10:26;;;;;;;0.85;0.80;;;;;;;8.69;100.00;98842.97;1641095;86;21180;-86
2022/09/21 01:13:34;;;;;;;1.00;0.90;;;;;;;8.70;100.00;98845.15;1654627;86;20924;-84
2022/09/21 01:16:16;;;;;;;1.35;1.10;;;;;;;8.68;100.00;98845.47;1630511;86;20980;-83
2022/09/21 01:19:00;;;;;;;1.95;1.30;;;;;;;8.68;100.00;98851.50;1645681;86;21046;-84
2022/09/21 01:21:32;;;;;;;1.60;1.22;;;;;;;8.68;100.00;98849.57;1623819;86;20955;-83
2022/09/21 01:24:22;;;;;;;;;;;;;;;8.67;100.00;98847.16;1650547;85;21231;-85
2022/09/21 01:27:23;;;;;;;4.58;1.20;;;;;;;8.65;100.00;98850.24;1639328;86;20096;-83
2022/09/21 01:30:04;;;;;;;1.20;0.93;;;;;;;8.63;100.00;98856.59;1629777;86;21027;-82
2022/09/21 01:32:55;;;;;;;1.62;1.32;;;;;;;8.65;100.00;98859.02;1653130;86;21024;-84
2022/09/21 01:35:27;;;;;;;1.60;1.20;;;;;;;8.66;100.00;98855.15;1619399;86;21469;-83
2022/09/21 01:38:04;;;;;;;2.45;1.35;;;;;;;8.62;100.00;98856.35;1680567;84;21146;-82
2022/09/21 01:40:40;;;;;;;1.40;1.20;;;;;;;8.60;100.00;98856.67;1679597;84;21453;-82
2022/09/21 01:43:14;;;;;;;1.15;1.00;;;;;;;8.63;100.00;98855.79;1678746;84;21015;-83
2022/09/21 01:45:50;;;;;;;1.70;1.30;;;;;;;8.62;100.00;98856.35;1676777;84;21113;-83
2022/09/21 01:48:24;;;;;;;3.60;1.40;;;;;;;8.63;100.00;98855.79;1661746;84;37115;-83
2022/09/21 01:50:57;;;;;;;2.00;1.27;;;;;;;8.63;100.00;98859.33;1679778;83;21631;-82
2022/09/21 01:53:47;;;;;;;1.47;1.32;;;;;;;8.63;100.00;98855.79;1682293;83;20997;-83
2022/09/21 01:56:21;;;;;;;1.50;1.22;;;;;;;8.63;100.00;98849.75;1659033;84;21576;-83
2022/09/21 01:58:58;;;;;;;1.72;1.42;;;;;;;8.64;100.00;98852.73;1681111;83;21451;-83
2022/09/21 02:01:25;;;;;;;4.75;1.20;;;;;;;8.65;100.00;98852.98;1679676;84;20970;-85
2022/09/21 02:04:00;;;;;;;2.17;1.72;;;;;;;8.66;100.00;98851.85;1678597;84;21176;-82
2022/09/21 02:06:31;;;;;;;2.58;1.57;;;;;;;8.66;100.00;98857.89;1658861;83;21003;-83
2022/09/21 02:09:03;;;;;;;1.87;1.37;;;;;;;8.63;100.00;98856.59;1679678;84;21056;-82
2022/09/21 02:11:37;;;;;;;3.02;1.50;;;;;;;8.62;100.00;98854.98;1679206;83;21307;-84
2022/09/21 02:14:12;;;;;;;3.30;1.40;;;;;;;8.64;100.00;98851.93;1662115;84;20966;-82
2022/09/21 02:16:55;;;;;;;3.90;2.27;;;;;;;8.63;100.00;98854.42;1678569;83;21779;-82
2022/09/21 02:19:47;;;;;;;1.57;1.17;;;;;;;8.65;100.00;98858.45;1649464;84;20973;-83
2022/09/21 02:23:02;;;;;;;4.10;1.60;;;;;;;8.67;100.00;98860.84;1678462;84;21028;-83
2022/09/21 02:25:52;;;;;;;1.60;1.32;;;;;;;8.67;100.00;98859.47;1680544;83;20917;-83
2022/09/21 02:28:43;;;;;;;4.53;1.45;;;;;;;8.66;100.00;98860.06;1677316;83;21026;-82
2022/09/21 02:31:45;;;;;;;4.45;1.50;;;;;;;8.67;100.00;98862.20;1676959;84;21079;-83
2022/09/21 02:34:22;;;;;;;1.98;1.30;;;;;;;8.65;100.00;98861.75;1676853;83;21086;-82
2022/09/21 02:37:23;;;;;;;7.00;2.05;;;;;;;8.66;100.00;98861.99;1686669;83;21002;-84
2022/09/21 02:40:23;;;;;;;2.83;1.40;;;;;;;8.67;100.00;98866.31;1663873;84;21684;-84
2022/09/21 02:43:00;;;;;;;3.47;1.37;;;;;;;8.70;100.00;98868.41;1686465;83;21150;-83
2022/09/21 02:45:34;;;;;;;1.50;1.27;;;;;;;8.70;100.00;98861.56;1679235;83;21168;-82
2022/09/21 02:48:16;;;;;;;4.80;1.52;;;;;;;8.68;100.00;98867.36;1683471;83;21079;-80
2022/09/21 02:50:54;;;;;;;4.12;1.72;;;;;;;8.67;100.00;98874.52;1679501;83;21050;-87
2022/09/21 02:53:28;;;;;;;1.72;1.50;;;;;;;8.69;100.00;98881.28;1678638;84;21058;-82
2022/09/21 02:56:06;;;;;;;3.77;2.15;;;;;;;8.71;100.00;98883.14;1673370;83;21190;-80
2022/09/21 02:58:29;;;;;;;4.75;1.80;;;;;;;8.72;100.00;98872.44;1658785;83;20956;-80
2022/09/21 03:00:56;;;;;;;4.25;2.00;;;;;;;8.74;100.00;98883.06;1678514;84;21049;-83
2022/09/21 03:03:28;;;;;;;4.85;1.75;;;;;;;8.75;100.00;98872.36;1663154;84;21134;-84
2022/09/21 03:06:02;;;;;;;2.65;1.50;;;;;;;8.75;100.00;98875.09;1664777;84;20958;-87
2022/09/21 03:08:37;;;;;;;5.97;1.67;;;;;;;8.77;100.00;98874.21;1689893;82;20942;-82
2022/09/21 03:11:06;;;;;;;2.33;1.77;;;;;;;8.78;100.00;98878.56;1682735;83;21085;-83
2022/09/21 03:13:38;;;;;;;4.65;2.20;;;;;;;8.75;100.00;98875.09;1679084;83;21196;-86
2022/09/21 03:16:09;;;;;;;3.20;2.12;;;;;;;8.75;100.00;98872.36;1668473;84;21014;-86
2022/09/21 03:18:39;;;;;;;3.70;1.90;;;;;;;8.74;100.00;98868.02;1665858;84;21611;-85
2022/09/21 03:21:06;;;;;;;3.00;1.70;;;;;;;8.75;100.00;98875.91;1649309;85;20895;-79
2022/09/21 03:23:36;;;;;;;2.95;1.92;;;;;;;8.76;100.00;98879.45;1633882;86;21014;-79
2022/09/21 03:26:07;;;;;;;3.65;1.67;;;;;;;8.76;100.00;98878.88;1632711;86;21238;-78
2022/09/21 03:28:37;;;;;;;5.45;1.70;;;;;;;8.76;100.00;98876.70;1651470;85;21446;-78
2022/09/21 03:31:11;;;;;;;2.80;2.00;;;;;;;8.74;100.00;98884.43;1651309;85;21117;-78
2022/09/21 03:33:37;;;;;;;5.12;2.10;;;;;;;8.75;100.00;98883.30;1633346;85;21061;-80
2022/09/21 03:36:05;;;;;;;3.22;2.10;;;;;;;8.74;100.00;98882.50;1648763;85;21621;-79
2022/09/21 03:38:36;;;;;;;3.77;2.15;;;;;;;8.75;100.00;98891.52;1650031;85;21679;-79
2022/09/21 03:41:08;;;;;;;;;;;;;;;8.74;100.00;98893.45;1654056;85;21073;-80
2022/09/21 03:43:41;;;;;;;2.75;1.82;;;;;;;8.74;100.00;98894.01;1648952;85;20149;-75
2022/09/21 03:46:18;;;;;;;3.12;1.92;;;;;;;8.73;100.00;98897.87;1654114;84;21057;-77
2022/09/21 03:48:49;;;;;;;4.00;2.05;;;;;;;8.72;100.00;98898.43;1659504;84;20993;-77
2022/09/21 03:51:21;;;;;;;2.87;2.17;;;;;;;8.75;100.00;98895.62;1650335;85;20907;-78
2022/09/21 03:53:53;;;;;;;4.10;1.77;;;;;;;8.76;100.00;98898.59;1650575;85;21578;-85
2022/09/21 03:56:28;;;;;;;2.62;1.80;;;;;;;8.77;100.00;98900.21;1658025;85;21943;-85
2022/09/21 03:58:58;;;;;;;3.00;2.52;;;;;;;8.76;100.00;98899.41;1662121;85;21009;-83
2022/09/21 04:01:27;;;;;;;5.25;2.10;;;;;;;8.77;100.00;98901.58;1652612;85;21550;-87
2022/09/21 04:03:57;;;;;;;2.10;1.90;;;;;;;8.79;100.00;98907.54;1651110;85;21062;-86
2022/09/21 04:06:25;;;;;;;2.15;1.90;;;;;;;8.81;100.00;98909.39;1649876;85;21110;-82
2022/09/21 04:09:01;;;;;;;2.72;1.90;;;;;;;8.79;100.00;98905.61;1654929;84;21070;-74
2022/09/21 04:11:32;;;;;;;3.20;2.00;;;;;;;8.78;100.00;98916.88;1653693;85;21042;-83
2022/09/21 04:14:02;;;;;;;4.37;2.40;;;;;;;8.75;100.00;98915.58;1634530;86;21091;-77
2022/09/21 04:16:31;;;;;;;1.80;1.60;;;;;;;8.76;100.00;98915.02;1650036;85;21070;-85
2022/09/21 04:19:05;;;;;;;4.10;2.15;;;;;;;8.78;100.00;98921.79;1654237;86;21034;-78
2022/09/21 04:21:36;;;;;;;2.47;1.92;;;;;;;8.76;100.00;98920.49;1649401;85;22241;-73
2022/09/21 04:24:07;;;;;;;2.50;2.17;;;;;;;8.73;100.00;98917.83;1648541;85;21070;-75
2022/09/21 04:26:36;;;;;;;3.10;1.82;;;;;;;8.75;100.00;98917.52;1650033;85;21233;-80
2022/09/21 04:29:05;;;;;;;4.17;2.20;;;;;;;8.76;100.00;98918.56;1652403;86;21111;-78
2022/09/21 04:31:39;;;;;;;4.33;2.20;;;;;;;8.79;100.00;98922.59;1640598;85;20976;-80
2022/09/21 04:34:10;;;;;;;2.70;2.17;;;;;;;8.80;100.00;98921.47;1634952;84;21770;-81
2022/09/21 04:36:38;;;;;;;3.62;2.20;;;;;;;8.80;100.00;98922.27;1634074;86;21195;-81
2022/09/21 04:39:07;;;;;;;2.33;1.82;;;;;;;8.83;100.00;98918.90;1632325;85;21074;-84
2022/09/21 04:41:41;;;;;;;2.83;2.20;;;;;;;8.83;100.00;98922.20;1654786;84;20906;-84
2022/09/21 04:44:11;;;;;;;3.80;1.98;;;;;;;8.85;100.00;98913.91;1652479;85;21010;-76
2022/09/21 04:46:43;;;;;;;3.07;2.20;;;;;;;8.87;100.00;98918.51;1650890;85;21124;-79
2022/09/21 04:49:12;;;;;;;4.12;2.20;;;;;;;8.87;100.00;98919.88;1652328;85;21395;-86
2022/09/21 04:51:39;;;;;;;3.08;2.22;;;;;;;8.88;100.00;98920.12;1650577;85;21579;-85
2022/09/21 04:54:08;;;;;;;3.80;2.12;;;;;;;8.88;100.00;98916.58;1649416;85;20995;-85
2022/09/21 04:56:43;;;;;;;3.27;2.12;;;;;;;8.89;100.00;98916.25;1651105;85;21072;-76
2022/09/21 04:59:13;;;;;;;3.12;2.12;;;;;;;8.91;100.00;98928.25;1649445;85;21132;-76
2022/09/21 05:01:47;;;;;;;2.50;2.08;;;;;;;8.92;100.00;98931.23;1650749;85;21572;-76
2022/09/21 05:04:18;;;;;;;3.12;1.87;;;;;;;8.94;100.00;98927.61;1631706;86;21413;-77
2022/09/21 05:06:54;;;;;;;4.20;2.10;;;;;;;8.97;100.00;98936.55;1627850;86;21030;-78
2022/09/21 05:12:18;;;;;;;2.80;1.92;;;;;;;8.97;100.00;98933.81;1653272;85;21131;-78
2022/09/21 05:14:52;;;;;;;4.37;3.10;;;;;;;8.97;100.00;98935.19;1649075;85;21458;-76
2022/09/21 05:17:21;;;;;;;7.05;3.22;;;;;;;8.99;100.00;98936.23;1651581;85;21872;-80
2022/09/21 05:19:57;;;;;;;3.72;2.80;;;;;;;9.00;100.00;98932.38;1650779;85;21577;-84
2022/09/21 05:22:30;;;;;;;4.92;2.22;;;;;;;9.00;100.00;98940.59;1654779;84;21096;-80
2022/09/21 05:24:57;;;;;;;3.40;2.27;;;;;;;9.02;100.00;98943.81;1652721;85;21049;-82
2022/09/21 05:27:29;;;;;;;4.35;1.95;;;;;;;9.04;100.00;98944.30;1656143;85;21135;-75
2022/09/21 05:30:02;;;;;;;7.55;2.52;;;;;;;9.05;100.00;98948.09;1663939;84;21508;-84
2022/09/21 05:32:50;;;;;;;3.92;1.95;;;;;;;9.07;100.00;98945.03;1649796;85;21617;-88
2022/09/21 05:35:25;;;;;;;2.72;2.40;;;;;;;9.07;100.00;98943.66;1638841;86;21011;-75
2022/09/21 05:38:03;;;;;;;2.95;2.30;;;;;;;9.09;100.00;98942.78;1644576;85;20982;-76
2022/09/21 05:40:40;;;;;;;9.13;2.08;;;;;;;9.10;100.00;98936.17;1650436;85;21050;-81
2022/09/21 05:43:11;;;;;;;3.05;2.10;;;;;;;9.14;100.00;98941.25;1630184;85;20998;-83
2022/09/21 05:45:45;;;;;;;3.98;2.35;;;;;;;9.25;100.00;98941.16;1651420;85;21196;-81
2022/09/21 05:48:25;;;;;;;5.92;2.30;;;;;;;9.35;100.00;98939.47;1645904;85;21036;-83
2022/09/21 05:50:58;;;;;;;;;;;;;;;9.41;100.00;98943.66;1651306;86;21399;-81
2022/09/21 05:53:52;;;;;;;4.67;2.27;;;;;;;9.45;100.00;98947.93;1650820;85;20606;-81
2022/09/21 05:56:43;;;;;;;3.50;1.80;;;;;;;9.46;100.00;98951.72;1650457;85;25420;-80
2022/09/21 05:59:34;;;;;;;3.92;2.12;;;;;;;9.47;100.00;98951.16;1642511;85;21475;-82
2022/09/21 06:02:18;;;;;;;2.15;1.70;;;;;;;9.53;100.00;98956.71;1654563;83;21546;-83
2022/09/21 06:04:46;;;;;;;2.10;1.90;;;;;;;9.59;100.00;98959.53;1663754;83;20911;-84
2022/09/21 06:07:16;;;;;;;3.92;1.92;;;;;;;9.67;100.00;98958.72;1651518;85;21016;-82
2022/09/21 06:09:46;;;;;;;3.20;1.80;;;;;;;9.74;100.00;98963.15;1651162;85;21542;-80
2022/09/21 06:12:15;;;;;;;3.55;1.80;;;;;;;9.78;100.00;98957.27;1652513;85;21144;-80
2022/09/21 06:14:50;;;;;;;2.08;1.87;;;;;;;9.81;100.00;98963.47;1650707;86;21065;-78
2022/09/21 06:17:17;;;;;;;2.30;1.75;;;;;;;9.84;100.00;98965.53;1649422;85;20931;-79
2022/09/21 06:19:45;;;;;;;2.27;1.70;;;;;;;9.91;100.00;98964.47;1653370;85;21024;-83
2022/09/21 06:22:11;;;;;;;3.98;1.57;;;;;;;9.96;100.00;98964.06;1651840;85;21227;-80
2022/09/21 06:24:40;;;;;;;2.85;1.70;;;;;;;10.02;100.00;98962.19;1652620;85;20950;-86
2022/09/21 06:27:08;;;;;;;4.60;1.95;;;;;;;10.04;100.00;98965.98;1651447;85;21196;-76
2022/09/21 06:29:39;;;;;;;5.17;1.70;;;;;;;10.06;100.00;98970.58;1652147;85;20967;-75
2022/09/21 06:32:08;;;;;;;2.00;1.60;;;;;;;10.10;100.00;98974.27;1650869;84;21153;-76
2022/09/21 06:34:38;;;;;;;4.97;1.65;;;;;;;10.08;100.00;98971.05;1625978;85;25131;-78
2022/09/21 06:37:07;;;;;;;2.75;1.98;;;;;;;10.08;100.00;98980.66;1678243;84;21033;-73
2022/09/21 06:39:37;;;;;;;7.87;2.00;;;;;;;10.11;100.00;98973.14;1676617;83;20935;-77
2022/09/21 06:42:08;;;;;;;3.08;1.85;;;;;;;10.12;100.00;98982.42;1676924;84;21576;-83
2022/09/21 06:44:39;;;;;;;3.08;1.70;;;;;;;10.12;100.00;98987.91;1677144;84;21074;-85
2022/09/21 06:47:08;;;;;;;2.05;1.30;;;;;;;10.12;100.00;98991.21;1677634;84;21909;-90
2022/09/21 06:49:37;;;;;;;1.75;1.60;;;;;;;10.08;100.00;98985.57;1658380;85;20953;-93
2022/09/21 06:52:04;;;;;;;3.90;1.50;;;;;;;10.07;100.00;98993.56;1677416;83;20903;-90
2022/09/21 06:54:34;;;;;;;4.97;1.27;;;;;;;10.05;100.00;98998.56;1676165;83;21120;-82
2022/09/21 06:57:02;;;;;;;2.37;1.42;;;;;;;10.06;100.00;98998.00;1678103;84;21007;-88
2022/09/21 06:59:31;;;;;;;1.85;1.27;;;;;;;10.09;100.00;99001.46;1677910;83;21260;-82
2022/09/21 07:01:58;;;;;;;1.65;1.55;;;;;;;10.05;100.00;98998.56;1677234;84;21513;-87
2022/09/21 07:04:30;;;;;;;1.30;1.10;;;;;;;10.03;100.00;99004.13;1671317;83;21037;-81
2022/09/21 07:06:58;;;;;;;3.22;1.62;;;;;;;9.99;100.00;99002.61;1650562;85;21072;-82
2022/09/21 07:09:24;;;;;;;4.53;1.65;;;;;;;9.98;100.00;98998.81;1652906;85;20899;-80
2022/09/21 07:11:51;;;;;;;5.08;2.17;;;;;;;10.00;100.00;99002.84;1650856;85;21935;-79
2022/09/21 07:14:22;;;;;;;4.95;2.00;;;;;;;10.03;100.00;99009.62;1651284;85;20966;-80
2022/09/21 07:16:51;;;;;;;2.33;1.80;;;;;;;10.02;100.00;99002.52;1650700;85;20986;-75
2022/09/21 07:19:22;;;;;;;2.27;1.90;;;;;;;10.00;100.00;99000.10;1649955;85;21077;-81
2022/09/21 07:21:56;;;;;;;3.50;2.20;;;;;;;9.96;100.00;98996.96;1646764;85;20975;-79
2022/09/21 07:24:25;;;;;;;1.90;1.60;;;;;;;9.97;100.00;99004.05;1651168;85;21146;-78
2022/09/21 07:26:57;;;;;;;6.60;3.20;;;;;;;10.02;100.00;99005.27;1633938;86;21592;-84
2022/09/21 07:29:27;;;;;;;6.40;3.35;;;;;;;10.05;100.00;99004.61;1650889;85;21492;-84
2022/09/21 07:31:55;;;;;;;5.03;2.80;;;;;;;10.09;100.00;99006.95;1648503;85;21015;-81
2022/09/21 07:34:25;;;;;;;4.70;3.08;;;;;;;10.12;100.00;99010.41;1652297;85;20986;-81
2022/09/21 07:36:52;;;;;;;4.92;2.90;;;;;;;10.17;100.00;99012.98;1661076;84;21241;-82
2022/09/21 07:39:23;;;;;;;1.70;1.40;;;;;;;10.22;100.00;99015.59;1653507;85;21184;-81
2022/09/21 07:41:52;;;;;;;3.37;1.82;;;;;;;10.28;100.00;99010.73;1664328;83;21565;-75
2022/09/21 07:44:27;;;;;;;1.62;1.27;;;;;;;10.31;100.00;99024.61;1638078;84;21006;-75
2022/09/21 07:46:53;;;;;;;;;;;;;;;10.32;100.00;99021.30;1656105;85;20969;-78
2022/09/21 07:49:25;;;;;;;2.47;1.10;;;;;;;10.30;100.00;99022.99;1636806;85;20091;-83
2022/09/21 07:51:53;;;;;;;2.77;1.77;;;;;;;10.32;100.00;99021.30;1650303;85;21066;-77
2022/09/21 07:54:21;;;;;;;3.83;1.72;;;;;;;10.33;100.00;99027.83;1653214;85;20974;-78
2022/09/21 07:59:36;;;;;;;2.60;1.72;;;;;;;10.34;100.00;99026.70;1651123;85;20997;-79
2022/09/21 08:02:03;;;;;;;2.15;1.30;;;;;;;10.32;100.00;99036.38;1649372;85;21154;-72
2022/09/21 08:04:33;;;;;;;1.87;1.60;;;;;;;10.31;100.00;99036.14;1650077;85;21014;-76
2022/09/21 08:07:04;;;;;;;2.02;1.47;;;;;;;10.34;100.00;99035.49;1657070;84;21062;-80
2022/09/21 08:09:32;;;;;;;2.00;1.47;;;;;;;10.38;100.00;99035.89;1658048;85;21069;-79
2022/09/21 08:12:00;;;;;;;2.10;1.60;;;;;;;10.42;100.00;99045.05;1650341;84;21265;-76
2022/09/21 08:14:29;;;;;;;3.08;1.60;;;;;;;10.41;100.00;99042.63;1645404;86;21118;-79
2022/09/21 08:17:00;;;;;;;2.98;1.85;;;;;;;10.39;100.00;99036.69;1649359;85;20943;-79
2022/09/21 08:19:26;;;;;;;3.02;1.67;;;;;;;10.36;100.00;99047.75;1649582;85;21469;-82
2022/09/21 08:21:53;;;;;;;3.02;1.87;;;;;;;10.29;100.00;99046.64;1649884;85;21011;-77
2022/09/21 08:24:27;;;;;;;1.72;1.60;;;;;;;10.21;100.00;99049.07;1653230;85;21006;-76
2022/09/21 08:26:56;;;;;;;1.95;1.70;;;;;;;10.17;100.00;99048.64;1650089;85;21549;-74
2022/09/21 08:29:24;;;;;;;3.83;1.87;;;;;;;10.18;100.00;99050.25;1650388;85;20978;-73
2022/09/21 08:32:04;;;;;;;2.30;1.77;;;;;;;10.18;100.00;99048.31;1652094;85;21049;-72
2022/09/21 08:34:38;;;;;;;1.98;1.65;;;;;;;10.21;100.00;99052.38;1649385;86;21208;-75
2022/09/21 08:37:06;;;;;;;1.65;1.52;;;;;;;10.25;100.00;99056.89;1652943;85;21536;-74
2022/09/21 08:39:41;;;;;;;2.35;1.70;;;;;;;10.30;100.00;99055.91;1618164;86;20949;-75
2022/09/21 08:42:28;;;;;;;2.98;1.72;;;;;;;10.36;100.00;99061.47;1653861;85;20971;-82
2022/09/21 08:44:59;;;;;;;1.90;1.60;;;;;;;10.43;100.00;99059.01;1610172;86;21006;-75
2022/09/21 08:47:52;;;;;;;2.92;1.80;;;;;;;10.49;100.00;99056.33;1652978;85;21621;-89
2022/09/21 08:50:40;;;;;;;;;;;;;;;10.49;100.00;99056.33;1655482;85;21063;-78
2022/09/21 08:53:15;;;;;;;2.35;1.85;;;;;;;10.57;100.00;99060.99;1655173;84;21165;-77
2022/09/21 08:55:42;;;;;;;2.77;2.20;;;;;;;10.60;100.00;99062.27;1590841;88;20882;-80
2022/09/21 08:58:27;;;;;;;2.47;2.20;;;;;;;10.63;100.00;99069.05;1649468;85;21006;-80
2022/09/21 09:01:43;;;;;;;5.80;2.02;;;;;;;10.65;100.00;99065.41;1655732;85;21061;-78
2022/09/21 09:04:35;;;;;;;4.35;2.40;;;;;;;10.72;100.00;99065.15;1650581;85;21530;-85
2022/09/21 09:07:39;;;;;;;4.20;2.50;;;;;;;10.78;100.00;99067.15;1651774;85;21233;-79
2022/09/21 09:10:37;;;;;;;3.27;2.50;;;;;;;10.78;100.00;99074.01;1649936;85;20998;-78
2022/09/21 09:13:39;;;;;;;4.75;2.92;;;;;;;10.74;100.00;99072.48;1634956;86;21547;-75
2022/09/21 09:16:34;;;;;;;3.67;2.77;;;;;;;10.68;100.00;99079.28;1649087;85;20930;-82
2022/09/21 09:19:35;;;;;;;8.40;3.95;;;;;;;10.63;100.00;99073.97;1628184;86;21023;-81
2022/09/21 09:22:05;;;;;;;9.23;3.37;;;;;;;10.53;100.00;99079.81;1591887;88;21211;-73
2022/09/21 09:24:47;;;;;;;3.80;3.17;;;;;;;10.49;100.00;99071.98;1583131;87;21558;-72
2022/09/21 09:27:23;;;;;;;9.43;5.80;;;;;;;10.49;100.00;99074.73;1608356;87;21145;-73
2022/09/21 09:30:01;;;;;;;9.90;6.15;;;;;;;10.48;100.00;99069.81;1615945;86;21139;-77
2022/09/21 09:32:52;;;;;;;6.20;4.17;;;;;;;10.47;100.00;99072.31;1650268;85;21031;-74
2022/09/21 09:35:40;;;;;;;3.40;2.95;;;;;;;10.49;100.00;99071.98;1672119;83;21256;-70
2022/09/21 09:38:20;;;;;;;5.75;3.95;;;;;;;10.59;100.00;99074.39;1659904;84;21425;-77
2022/09/21 09:41:04;;;;;;;5.92;4.20;;;;;;;10.73;100.00;99071.44;1656484;84;20932;-77
2022/09/21 09:43:39;;;;;;;5.62;2.75;;;;;;;10.82;100.00;99072.22;1650529;85;21010;-75
2022/09/21 09:46:35;;;;;;;3.27;2.22;;;;;;;10.83;100.00;99070.52;1649333;85;21082;-77
2022/09/21 09:49:18;;;;;;;3.75;2.55;;;;;;;10.85;100.00;99072.94;1660408;84;21688;-77
2022/09/21 09:51:50;;;;;;;6.22;3.02;;;;;;;10.84;100.00;99074.88;1658641;85;21003;-76
2022/09/21 09:54:20;;;;;;;6.40;2.70;;;;;;;10.83;100.00;99073.83;1694814;83;21066;-78
2022/09/21 09:56:48;;;;;;;4.53;3.45;;;;;;;10.85;100.00;99075.68;1680248;84;21525;-78
2022/09/21 11:00:35;;;;;;;6.75;3.37;;;;;;;13.13;100.00;99073.91;1765804;78;27502;-71
2022/09/21 11:03:27;;;;;;;4.30;2.98;;;;;;;13.26;100.00;99074.75;1745980;81;20982;-71
2022/09/21 11:05:54;;;;;;;4.40;3.10;;;;;;;13.31;100.00;99073.11;1744004;81;21077;-71
2022/09/21 11:08:28;;;;;;;3.62;3.15;;;;;;;13.08;100.00;99076.33;1745308;81;20982;-75
2022/09/21 11:11:26;;;;;;;7.08;4.10;;;;;;;12.67;100.00;99088.91;1729261;80;21018;-72
2022/09/21 11:14:20;;;;;;;5.47;3.55;;;;;;;12.30;100.00;99081.09;1714131;82;21422;-74
2022/09/21 11:16:59;;;;;;;6.50;4.03;;;;;;;12.00;100.00;99081.22;1708913;80;21478;-72
2022/09/21 11:19:49;;;;;;;5.87;4.15;;;;;;;11.82;100.00;99077.79;1677903;83;21249;-72
2022/09/21 11:22:38;;;;;;;6.75;4.70;;;;;;;11.78;100.00;99088.42;1707241;82;21560;-75
2022/09/21 11:25:43;;;;;;;5.70;4.87;;;;;;;11.78;100.00;99078.23;1710618;80;21014;-78
2022/09/21 11:28:30;;;;;;;6.70;5.15;;;;;;;11.91;100.00;99079.10;1720874;80;21033;-76
2022/09/21 11:31:15;;;;;;;7.60;4.85;;;;;;;12.26;100.00;99074.08;1709582;82;20935;-75
2022/09/21 11:34:07;;;;;;;9.40;4.92;;;;;;;12.44;100.00;99067.27;1722746;82;21185;-75
2022/09/21 11:37:10;;;;;;;6.45;4.50;;;;;;;12.49;100.00;99075.31;1742678;80;20947;-75
2022/09/21 11:39:49;;;;;;;7.40;4.97;;;;;;;12.38;100.00;99079.63;1733352;80;20947;-77
2022/09/21 11:42:48;;;;;;;10.45;6.30;;;;;;;12.20;100.00;99079.56;1733476;80;20947;-77
2022/09/21 11:46:04;;;;;;;11.22;5.05;;;;;;;12.07;100.00;99082.05;1672963;84;20963;-86
2022/09/21 11:48:56;;;;;;;7.08;4.53;;;;;;;12.03;100.00;99079.73;1720732;80;21099;-80
2022/09/21 11:51:28;;;;;;;10.48;4.87;;;;;;;12.15;100.00;99083.32;1708895;80;21414;-82
2022/09/21 11:54:28;;;;;;;;;;;;;;;12.45;100.00;99076.33;1712754;82;20928;-80
2022/09/21 11:57:08;;;;;;;7.78;4.50;;;;;;;12.76;100.00;99085.45;1725967;80;20130;-77
2022/09/21 11:59:47;;;;;;;7.28;3.90;;;;;;;13.14;100.00;99074.95;1689279;83;21025;-76
2022/09/21 12:02:54;;;;;;;8.13;3.75;;;;;;;13.44;100.00;99079.66;1684163;84;21867;-83
2022/09/21 12:06:03;;;;;;;7.47;3.83;;;;;;;13.55;100.00;99071.72;1574439;89;21131;-73
2022/09/21 12:08:41;;;;;;;7.08;4.05;;;;;;;13.58;100.00;99075.16;1570816;91;21024;-74
2022/09/21 12:11:49;;;;;;;6.42;3.67;;;;;;;13.67;100.00;99074.47;1619143;84;21050;-82
2022/09/21 12:14:36;;;;;;;5.67;3.20;;;;;;;13.75;100.00;99070.77;1644977;86;21063;-77
2022/09/21 12:17:23;;;;;;;8.83;3.70;;;;;;;13.98;100.00;99070.23;1648910;86;20945;-76
2022/09/21 12:19:55;;;;;;;6.78;3.65;;;;;;;14.24;98.19;99068.42;1675402;84;20995;-73
2022/09/21 12:22:25;;;;;;;;;;;;;;;14.45;96.97;99060.16;1679932;85;20999;-73
2022/09/21 12:25:01;;;;;;;4.17;2.40;;;;;;;14.76;93.33;99052.50;1726048;81;20492;-76
2022/09/21 12:27:36;;;;;;;3.75;2.70;;;;;;;14.94;85.76;99057.68;1731589;81;21042;-77
2022/09/21 12:30:08;;;;;;;5.55;3.08;;;;;;;15.13;88.76;99059.12;1735181;80;21626;-79
2022/09/21 12:33:05;;;;;;;5.80;3.50;;;;;;;15.44;84.99;99063.82;1739594;81;20982;-81
2022/09/21 12:35:42;;;;;;;5.78;2.90;;;;;;;15.48;81.48;99060.56;1730480;82;20935;-85
2022/09/21 12:38:25;;;;;;;7.25;3.05;;;;;;;15.40;80.89;99063.73;1726968;82;20945;-76
2022/09/21 12:41:15;;;;;;;3.98;2.60;;;;;;;15.51;81.64;99054.30;1733822;82;20939;-78
2022/09/21 12:44:18;;;;;;;4.20;2.80;;;;;;;15.73;79.68;99060.55;1722576;82;21235;-76
2022/09/21 12:47:11;;;;;;;5.33;3.20;;;;;;;15.99;79.58;99057.16;1732483;81;21011;-79
2022/09/21 12:49:45;;;;;;;4.33;3.25;;;;;;;16.54;79.80;99056.45;1749791;81;20994;-76
2022/09/21 12:52:17;;;;;;;4.50;3.02;;;;;;;17.11;80.68;99056.09;1725451;81;21658;-78
2022/09/21 12:54:56;;;;;;;;;;;;;;;17.73;74.81;99053.30;1725942;81;21047;-75
2022/09/21 12:58:13;;;;;;;5.55;3.15;;;;;;;18.01;71.53;99051.47;1740905;82;21210;-74
2022/09/21 13:01:19;;;;;;;6.00;3.00;;;;;;;17.98;70.67;99054.19;1694861;84;21387;-74
2022/09/21 13:04:13;;;;;;;6.42;2.92;;;;;;;17.91;67.60;99055.52;1694057;83;21007;-74
2022/09/21 13:07:31;;;;;;;7.10;2.92;;;;;;;17.23;70.40;99056.48;1678532;83;21000;-77
2022/09/21 13:09:56;;;;;;;5.33;2.90;;;;;;;16.58;71.42;99050.98;1730148;82;21554;-77
2022/09/21 13:12:27;;;;;;;6.20;2.62;;;;;;;15.95;74.35;99053.52;1732243;81;21841;-73
2022/09/21 13:15:04;;;;;;;6.42;3.30;;;;;;;15.58;75.15;99056.47;1719968;81;21107;-81
2022/09/21 13:17:32;;;;;;;7.60;2.98;;;;;;;15.23;75.86;99061.92;1700651;81;21018;-74
2022/09/21 13:20:18;;;;;;;7.47;3.40;;;;;;;14.95;78.43;99056.52;1746309;82;20908;-73
2022/09/21 13:22:47;;;;;;;5.30;3.22;;;;;;;15.02;79.74;99059.47;1725856;81;20903;-73
2022/09/21 13:25:27;;;;;;;4.47;3.22;;;;;;;15.53;81.08;99056.13;1724618;82;21125;-81